sensor_id;sensor_type;location;lat;lon;timestamp;P1;durP1;ratioP1;P2;durP2;ratioP2
21354;SDS011;10835;50.148;19.760;2023-07-02T00:00:24;13.75;;;8.50;;
21354;SDS011;10835;50.148;19.760;2023-07-02T00:02:52;14.73;;;9.02;;
21354;SDS011;10835;50.148;19.760;2023-07-02T00:05:22;14.73;;;8.65;;
21354;SDS011;10835;50.148;19.760;2023-07-02T00:07:51;12.73;;;7.80;;
21354;SDS011;10835;50.148;19.760;2023-07-02T00:10:20;14.75;;;8.45;;
21354;SDS011;10835;50.148;19.760;2023-07-02T00:12:48;16.17;;;8.30;;
21354;SDS011;10835;50.148;19.760;2023-07-02T00:15:16;11.30;;;7.68;;
21354;SDS011;10835;50.148;19.760;2023-07-02T00:17:44;14.73;;;8.32;;
21354;SDS011;10835;50.148;19.760;2023-07-02T00:20:13;12.73;;;7.70;;
21354;SDS011;10835;50.148;19.760;2023-07-02T00:22:43;17.98;;;8.82;;
21354;SDS011;10835;50.148;19.760;2023-07-02T00:25:14;12.10;;;8.15;;
21354;SDS011;10835;50.148;19.760;2023-07-02T00:27:43;18.50;;;8.85;;
21354;SDS011;10835;50.148;19.760;2023-07-02T00:30:11;15.85;;;8.68;;
21354;SDS011;10835;50.148;19.760;2023-07-02T00:32:41;15.32;;;8.18;;
21354;SDS011;10835;50.148;19.760;2023-07-02T00:35:11;12.43;;;8.18;;
21354;SDS011;10835;50.148;19.760;2023-07-02T00:37:40;13.73;;;7.85;;
21354;SDS011;10835;50.148;19.760;2023-07-02T00:40:08;16.80;;;8.45;;
21354;SDS011;10835;50.148;19.760;2023-07-02T00:42:38;16.10;;;8.25;;
21354;SDS011;10835;50.148;19.760;2023-07-02T00:45:07;12.75;;;7.70;;
21354;SDS011;10835;50.148;19.760;2023-07-02T00:47:36;12.50;;;8.32;;
21354;SDS011;10835;50.148;19.760;2023-07-02T00:50:05;16.40;;;8.70;;
21354;SDS011;10835;50.148;19.760;2023-07-02T00:52:35;14.63;;;8.50;;
21354;SDS011;10835;50.148;19.760;2023-07-02T00:55:04;17.50;;;8.55;;
21354;SDS011;10835;50.148;19.760;2023-07-02T00:57:33;15.25;;;9.05;;
21354;SDS011;10835;50.148;19.760;2023-07-02T01:00:03;17.70;;;9.40;;
21354;SDS011;10835;50.148;19.760;2023-07-02T01:02:34;13.13;;;8.20;;
21354;SDS011;10835;50.148;19.760;2023-07-02T01:05:05;13.43;;;8.50;;
21354;SDS011;10835;50.148;19.760;2023-07-02T01:07:34;14.05;;;8.55;;
21354;SDS011;10835;50.148;19.760;2023-07-02T01:10:02;13.32;;;8.32;;
21354;SDS011;10835;50.148;19.760;2023-07-02T01:12:32;15.45;;;8.80;;
21354;SDS011;10835;50.148;19.760;2023-07-02T01:15:03;13.35;;;8.25;;
21354;SDS011;10835;50.148;19.760;2023-07-02T01:17:34;11.98;;;7.95;;
21354;SDS011;10835;50.148;19.760;2023-07-02T01:20:10;13.75;;;8.50;;
21354;SDS011;10835;50.148;19.760;2023-07-02T01:22:39;13.32;;;9.05;;
21354;SDS011;10835;50.148;19.760;2023-07-02T01:25:08;12.88;;;8.93;;
21354;SDS011;10835;50.148;19.760;2023-07-02T01:27:37;15.05;;;9.10;;
21354;SDS011;10835;50.148;19.760;2023-07-02T01:30:06;14.13;;;8.57;;
21354;SDS011;10835;50.148;19.760;2023-07-02T01:32:36;11.93;;;8.60;;
21354;SDS011;10835;50.148;19.760;2023-07-02T01:35:05;17.17;;;10.02;;
21354;SDS011;10835;50.148;19.760;2023-07-02T01:37:36;14.15;;;10.23;;
21354;SDS011;10835;50.148;19.760;2023-07-02T01:40:06;13.63;;;9.90;;
21354;SDS011;10835;50.148;19.760;2023-07-02T01:42:35;14.48;;;8.68;;
21354;SDS011;10835;50.148;19.760;2023-07-02T01:45:04;16.05;;;8.85;;
21354;SDS011;10835;50.148;19.760;2023-07-02T01:47:33;12.35;;;8.38;;
21354;SDS011;10835;50.148;19.760;2023-07-02T01:50:04;14.20;;;8.77;;
21354;SDS011;10835;50.148;19.760;2023-07-02T01:52:33;13.65;;;8.27;;
21354;SDS011;10835;50.148;19.760;2023-07-02T01:55:03;18.30;;;9.05;;
21354;SDS011;10835;50.148;19.760;2023-07-02T01:57:32;18.33;;;8.07;;
21354;SDS011;10835;50.148;19.760;2023-07-02T02:00:00;12.85;;;8.80;;
21354;SDS011;10835;50.148;19.760;2023-07-02T02:02:41;14.82;;;9.07;;
21354;SDS011;10835;50.148;19.760;2023-07-02T02:05:10;13.60;;;9.13;;
21354;SDS011;10835;50.148;19.760;2023-07-02T02:07:39;12.55;;;8.68;;
21354;SDS011;10835;50.148;19.760;2023-07-02T02:10:09;16.35;;;8.18;;
21354;SDS011;10835;50.148;19.760;2023-07-02T02:12:38;12.30;;;8.35;;
21354;SDS011;10835;50.148;19.760;2023-07-02T02:15:06;13.63;;;8.30;;
21354;SDS011;10835;50.148;19.760;2023-07-02T02:17:35;13.30;;;7.88;;
21354;SDS011;10835;50.148;19.760;2023-07-02T02:20:04;14.60;;;7.47;;
21354;SDS011;10835;50.148;19.760;2023-07-02T02:22:34;14.05;;;8.52;;
21354;SDS011;10835;50.148;19.760;2023-07-02T02:25:04;13.98;;;8.68;;
21354;SDS011;10835;50.148;19.760;2023-07-02T02:27:34;11.68;;;7.55;;
21354;SDS011;10835;50.148;19.760;2023-07-02T02:30:02;10.43;;;7.40;;
21354;SDS011;10835;50.148;19.760;2023-07-02T02:32:33;11.18;;;7.75;;
21354;SDS011;10835;50.148;19.760;2023-07-02T02:35:02;13.50;;;7.55;;
21354;SDS011;10835;50.148;19.760;2023-07-02T02:37:32;11.60;;;7.68;;
21354;SDS011;10835;50.148;19.760;2023-07-02T02:40:02;12.02;;;7.47;;
21354;SDS011;10835;50.148;19.760;2023-07-02T02:42:33;11.57;;;8.07;;
21354;SDS011;10835;50.148;19.760;2023-07-02T02:45:03;12.20;;;8.18;;
21354;SDS011;10835;50.148;19.760;2023-07-02T02:47:32;17.00;;;8.77;;
21354;SDS011;10835;50.148;19.760;2023-07-02T02:50:01;14.85;;;8.70;;
21354;SDS011;10835;50.148;19.760;2023-07-02T02:52:30;13.75;;;8.45;;
21354;SDS011;10835;50.148;19.760;2023-07-02T02:54:58;13.88;;;9.07;;
21354;SDS011;10835;50.148;19.760;2023-07-02T02:57:27;13.10;;;9.13;;
21354;SDS011;10835;50.148;19.760;2023-07-02T02:59:56;13.05;;;9.00;;
21354;SDS011;10835;50.148;19.760;2023-07-02T03:02:25;14.13;;;9.43;;
21354;SDS011;10835;50.148;19.760;2023-07-02T03:04:53;14.70;;;9.85;;
21354;SDS011;10835;50.148;19.760;2023-07-02T03:07:23;12.15;;;9.13;;
21354;SDS011;10835;50.148;19.760;2023-07-02T03:09:51;14.02;;;9.77;;
21354;SDS011;10835;50.148;19.760;2023-07-02T03:12:22;13.55;;;9.57;;
21354;SDS011;10835;50.148;19.760;2023-07-02T03:14:53;13.30;;;9.15;;
21354;SDS011;10835;50.148;19.760;2023-07-02T03:17:23;16.77;;;10.05;;
21354;SDS011;10835;50.148;19.760;2023-07-02T03:19:52;15.55;;;9.35;;
21354;SDS011;10835;50.148;19.760;2023-07-02T03:22:20;15.20;;;9.80;;
21354;SDS011;10835;50.148;19.760;2023-07-02T03:24:48;16.08;;;9.02;;
21354;SDS011;10835;50.148;19.760;2023-07-02T03:27:17;13.63;;;9.45;;
21354;SDS011;10835;50.148;19.760;2023-07-02T03:29:45;12.95;;;9.25;;
21354;SDS011;10835;50.148;19.760;2023-07-02T03:32:16;12.73;;;9.15;;
21354;SDS011;10835;50.148;19.760;2023-07-02T03:34:46;20.58;;;10.70;;
21354;SDS011;10835;50.148;19.760;2023-07-02T03:37:14;16.08;;;9.15;;
21354;SDS011;10835;50.148;19.760;2023-07-02T03:39:42;12.45;;;9.40;;
21354;SDS011;10835;50.148;19.760;2023-07-02T03:42:10;14.20;;;9.93;;
21354;SDS011;10835;50.148;19.760;2023-07-02T03:44:39;17.33;;;9.32;;
21354;SDS011;10835;50.148;19.760;2023-07-02T03:47:08;12.00;;;8.43;;
21354;SDS011;10835;50.148;19.760;2023-07-02T03:49:38;16.02;;;9.35;;
21354;SDS011;10835;50.148;19.760;2023-07-02T03:52:08;12.05;;;8.07;;
21354;SDS011;10835;50.148;19.760;2023-07-02T03:54:39;13.13;;;8.70;;
21354;SDS011;10835;50.148;19.760;2023-07-02T03:57:07;12.57;;;9.05;;
21354;SDS011;10835;50.148;19.760;2023-07-02T03:59:35;16.42;;;8.75;;
21354;SDS011;10835;50.148;19.760;2023-07-02T04:02:04;14.80;;;9.23;;
21354;SDS011;10835;50.148;19.760;2023-07-02T04:04:32;13.80;;;9.32;;
21354;SDS011;10835;50.148;19.760;2023-07-02T04:07:01;16.15;;;10.00;;
21354;SDS011;10835;50.148;19.760;2023-07-02T04:09:30;10.32;;;9.00;;
21354;SDS011;10835;50.148;19.760;2023-07-02T04:11:59;17.17;;;10.13;;
21354;SDS011;10835;50.148;19.760;2023-07-02T04:14:28;11.35;;;8.43;;
21354;SDS011;10835;50.148;19.760;2023-07-02T04:16:56;12.45;;;8.68;;
21354;SDS011;10835;50.148;19.760;2023-07-02T04:19:24;13.05;;;9.32;;
21354;SDS011;10835;50.148;19.760;2023-07-02T04:21:53;13.05;;;9.32;;
21354;SDS011;10835;50.148;19.760;2023-07-02T04:24:21;15.48;;;9.18;;
21354;SDS011;10835;50.148;19.760;2023-07-02T04:26:51;13.82;;;8.73;;
21354;SDS011;10835;50.148;19.760;2023-07-02T04:29:40;13.02;;;9.27;;
21354;SDS011;10835;50.148;19.760;2023-07-02T04:32:08;11.75;;;8.65;;
21354;SDS011;10835;50.148;19.760;2023-07-02T04:34:36;14.00;;;9.00;;
21354;SDS011;10835;50.148;19.760;2023-07-02T04:37:05;9.98;;;7.75;;
21354;SDS011;10835;50.148;19.760;2023-07-02T04:39:33;12.95;;;7.80;;
21354;SDS011;10835;50.148;19.760;2023-07-02T04:42:03;17.88;;;9.32;;
21354;SDS011;10835;50.148;19.760;2023-07-02T04:44:32;15.10;;;9.00;;
21354;SDS011;10835;50.148;19.760;2023-07-02T04:47:00;14.07;;;9.10;;
21354;SDS011;10835;50.148;19.760;2023-07-02T04:49:29;11.35;;;8.23;;
21354;SDS011;10835;50.148;19.760;2023-07-02T04:51:57;14.95;;;9.23;;
21354;SDS011;10835;50.148;19.760;2023-07-02T04:54:25;14.07;;;8.60;;
21354;SDS011;10835;50.148;19.760;2023-07-02T04:56:54;13.35;;;9.13;;
21354;SDS011;10835;50.148;19.760;2023-07-02T04:59:23;12.75;;;7.93;;
21354;SDS011;10835;50.148;19.760;2023-07-02T05:01:52;15.75;;;9.10;;
21354;SDS011;10835;50.148;19.760;2023-07-02T05:04:20;14.60;;;9.32;;
21354;SDS011;10835;50.148;19.760;2023-07-02T05:06:49;13.13;;;8.30;;
21354;SDS011;10835;50.148;19.760;2023-07-02T05:09:17;16.40;;;9.23;;
21354;SDS011;10835;50.148;19.760;2023-07-02T05:11:45;14.10;;;8.90;;
21354;SDS011;10835;50.148;19.760;2023-07-02T05:14:13;13.88;;;9.27;;
21354;SDS011;10835;50.148;19.760;2023-07-02T05:16:43;16.23;;;8.90;;
21354;SDS011;10835;50.148;19.760;2023-07-02T05:19:11;12.88;;;8.85;;
21354;SDS011;10835;50.148;19.760;2023-07-02T05:21:39;15.73;;;9.32;;
21354;SDS011;10835;50.148;19.760;2023-07-02T05:24:08;13.15;;;8.32;;
21354;SDS011;10835;50.148;19.760;2023-07-02T05:26:36;10.27;;;7.07;;
21354;SDS011;10835;50.148;19.760;2023-07-02T05:29:04;11.93;;;7.53;;
21354;SDS011;10835;50.148;19.760;2023-07-02T05:31:32;12.13;;;8.38;;
21354;SDS011;10835;50.148;19.760;2023-07-02T05:34:02;13.45;;;8.55;;
21354;SDS011;10835;50.148;19.760;2023-07-02T05:36:31;12.88;;;7.25;;
21354;SDS011;10835;50.148;19.760;2023-07-02T05:39:01;10.40;;;7.35;;
21354;SDS011;10835;50.148;19.760;2023-07-02T05:41:29;11.55;;;7.43;;
21354;SDS011;10835;50.148;19.760;2023-07-02T05:43:58;11.20;;;7.25;;
21354;SDS011;10835;50.148;19.760;2023-07-02T05:46:26;10.98;;;6.97;;
21354;SDS011;10835;50.148;19.760;2023-07-02T05:48:54;14.13;;;7.82;;
21354;SDS011;10835;50.148;19.760;2023-07-02T05:51:27;10.98;;;8.13;;
21354;SDS011;10835;50.148;19.760;2023-07-02T05:53:56;10.15;;;7.80;;
21354;SDS011;10835;50.148;19.760;2023-07-02T05:56:24;10.65;;;7.57;;
21354;SDS011;10835;50.148;19.760;2023-07-02T05:58:53;11.20;;;7.63;;
21354;SDS011;10835;50.148;19.760;2023-07-02T06:01:21;8.07;;;6.45;;
21354;SDS011;10835;50.148;19.760;2023-07-02T06:03:49;8.27;;;5.95;;
21354;SDS011;10835;50.148;19.760;2023-07-02T06:06:18;9.02;;;6.18;;
21354;SDS011;10835;50.148;19.760;2023-07-02T06:08:47;10.52;;;6.25;;
21354;SDS011;10835;50.148;19.760;2023-07-02T06:11:17;11.50;;;6.43;;
21354;SDS011;10835;50.148;19.760;2023-07-02T06:13:45;9.80;;;5.97;;
21354;SDS011;10835;50.148;19.760;2023-07-02T06:16:14;9.40;;;5.60;;
21354;SDS011;10835;50.148;19.760;2023-07-02T06:18:42;9.30;;;6.03;;
21354;SDS011;10835;50.148;19.760;2023-07-02T06:21:10;9.98;;;5.63;;
21354;SDS011;10835;50.148;19.760;2023-07-02T06:23:39;9.93;;;6.30;;
21354;SDS011;10835;50.148;19.760;2023-07-02T06:26:10;12.93;;;5.30;;
21354;SDS011;10835;50.148;19.760;2023-07-02T06:28:38;6.63;;;4.78;;
21354;SDS011;10835;50.148;19.760;2023-07-02T06:31:07;9.38;;;5.95;;
21354;SDS011;10835;50.148;19.760;2023-07-02T06:33:38;7.40;;;5.00;;
21354;SDS011;10835;50.148;19.760;2023-07-02T06:36:07;7.05;;;4.80;;
21354;SDS011;10835;50.148;19.760;2023-07-02T06:38:38;6.75;;;4.95;;
21354;SDS011;10835;50.148;19.760;2023-07-02T06:41:06;9.15;;;5.30;;
21354;SDS011;10835;50.148;19.760;2023-07-02T06:43:36;6.53;;;4.80;;
21354;SDS011;10835;50.148;19.760;2023-07-02T06:46:04;7.72;;;5.20;;
21354;SDS011;10835;50.148;19.760;2023-07-02T06:48:33;15.57;;;6.25;;
21354;SDS011;10835;50.148;19.760;2023-07-02T06:51:01;7.05;;;4.88;;
21354;SDS011;10835;50.148;19.760;2023-07-02T06:53:29;8.25;;;5.35;;
21354;SDS011;10835;50.148;19.760;2023-07-02T06:55:58;7.38;;;4.45;;
21354;SDS011;10835;50.148;19.760;2023-07-02T06:58:26;7.97;;;4.68;;
21354;SDS011;10835;50.148;19.760;2023-07-02T07:00:55;7.82;;;5.28;;
21354;SDS011;10835;50.148;19.760;2023-07-02T07:03:24;6.97;;;4.47;;
21354;SDS011;10835;50.148;19.760;2023-07-02T07:05:52;7.65;;;4.95;;
21354;SDS011;10835;50.148;19.760;2023-07-02T07:08:21;6.15;;;4.43;;
21354;SDS011;10835;50.148;19.760;2023-07-02T07:10:49;9.13;;;4.95;;
21354;SDS011;10835;50.148;19.760;2023-07-02T07:13:18;10.52;;;4.78;;
21354;SDS011;10835;50.148;19.760;2023-07-02T07:15:46;6.47;;;4.70;;
21354;SDS011;10835;50.148;19.760;2023-07-02T07:18:16;6.70;;;4.25;;
21354;SDS011;10835;50.148;19.760;2023-07-02T07:20:45;6.70;;;4.90;;
21354;SDS011;10835;50.148;19.760;2023-07-02T07:23:14;8.27;;;4.63;;
21354;SDS011;10835;50.148;19.760;2023-07-02T07:25:43;6.95;;;4.93;;
21354;SDS011;10835;50.148;19.760;2023-07-02T07:28:11;5.32;;;4.00;;
21354;SDS011;10835;50.148;19.760;2023-07-02T07:30:42;8.48;;;4.55;;
21354;SDS011;10835;50.148;19.760;2023-07-02T07:33:10;6.65;;;4.88;;
21354;SDS011;10835;50.148;19.760;2023-07-02T07:35:40;8.45;;;4.63;;
21354;SDS011;10835;50.148;19.760;2023-07-02T07:38:08;8.00;;;4.57;;
21354;SDS011;10835;50.148;19.760;2023-07-02T07:40:36;8.70;;;4.68;;
21354;SDS011;10835;50.148;19.760;2023-07-02T07:43:04;6.50;;;5.10;;
21354;SDS011;10835;50.148;19.760;2023-07-02T07:45:33;10.60;;;5.07;;
21354;SDS011;10835;50.148;19.760;2023-07-02T07:48:04;7.72;;;5.40;;
21354;SDS011;10835;50.148;19.760;2023-07-02T07:50:33;14.23;;;6.13;;
21354;SDS011;10835;50.148;19.760;2023-07-02T07:53:02;8.00;;;5.13;;
21354;SDS011;10835;50.148;19.760;2023-07-02T07:55:31;8.10;;;6.03;;
21354;SDS011;10835;50.148;19.760;2023-07-02T07:57:59;6.53;;;4.32;;
21354;SDS011;10835;50.148;19.760;2023-07-02T08:00:27;8.75;;;5.55;;
21354;SDS011;10835;50.148;19.760;2023-07-02T08:02:55;6.53;;;4.90;;
21354;SDS011;10835;50.148;19.760;2023-07-02T08:05:27;8.10;;;5.18;;
21354;SDS011;10835;50.148;19.760;2023-07-02T08:07:56;6.68;;;4.90;;
21354;SDS011;10835;50.148;19.760;2023-07-02T08:10:28;9.82;;;5.88;;
21354;SDS011;10835;50.148;19.760;2023-07-02T08:12:57;8.30;;;5.68;;
21354;SDS011;10835;50.148;19.760;2023-07-02T08:15:25;9.23;;;5.20;;
21354;SDS011;10835;50.148;19.760;2023-07-02T08:17:55;10.38;;;5.65;;
21354;SDS011;10835;50.148;19.760;2023-07-02T08:20:25;10.35;;;5.90;;
21354;SDS011;10835;50.148;19.760;2023-07-02T08:22:53;5.50;;;4.22;;
21354;SDS011;10835;50.148;19.760;2023-07-02T08:25:24;9.60;;;4.55;;
21354;SDS011;10835;50.148;19.760;2023-07-02T08:27:57;8.65;;;4.70;;
21354;SDS011;10835;50.148;19.760;2023-07-02T08:30:26;5.93;;;4.40;;
21354;SDS011;10835;50.148;19.760;2023-07-02T08:32:54;8.65;;;5.57;;
21354;SDS011;10835;50.148;19.760;2023-07-02T08:35:22;8.70;;;4.80;;
21354;SDS011;10835;50.148;19.760;2023-07-02T08:37:51;7.90;;;4.50;;
21354;SDS011;10835;50.148;19.760;2023-07-02T08:40:19;6.57;;;4.47;;
21354;SDS011;10835;50.148;19.760;2023-07-02T08:42:47;6.05;;;4.60;;
21354;SDS011;10835;50.148;19.760;2023-07-02T08:45:17;8.18;;;4.50;;
21354;SDS011;10835;50.148;19.760;2023-07-02T08:47:47;5.13;;;4.40;;
21354;SDS011;10835;50.148;19.760;2023-07-02T08:50:17;10.73;;;4.13;;
21354;SDS011;10835;50.148;19.760;2023-07-02T08:52:45;12.95;;;4.57;;
21354;SDS011;10835;50.148;19.760;2023-07-02T08:55:14;10.38;;;4.88;;
21354;SDS011;10835;50.148;19.760;2023-07-02T08:57:42;6.72;;;4.30;;
21354;SDS011;10835;50.148;19.760;2023-07-02T09:00:19;4.90;;;4.03;;
21354;SDS011;10835;50.148;19.760;2023-07-02T09:02:49;6.10;;;4.00;;
21354;SDS011;10835;50.148;19.760;2023-07-02T09:05:17;8.57;;;4.20;;
21354;SDS011;10835;50.148;19.760;2023-07-02T09:07:46;4.82;;;3.47;;
21354;SDS011;10835;50.148;19.760;2023-07-02T09:10:26;7.40;;;3.63;;
21354;SDS011;10835;50.148;19.760;2023-07-02T09:13:04;5.70;;;3.88;;
21354;SDS011;10835;50.148;19.760;2023-07-02T09:15:37;7.53;;;3.70;;
21354;SDS011;10835;50.148;19.760;2023-07-02T09:18:19;5.88;;;3.22;;
21354;SDS011;10835;50.148;19.760;2023-07-02T09:20:49;3.50;;;2.58;;
21354;SDS011;10835;50.148;19.760;2023-07-02T09:23:18;4.13;;;2.50;;
21354;SDS011;10835;50.148;19.760;2023-07-02T09:25:46;3.22;;;2.28;;
21354;SDS011;10835;50.148;19.760;2023-07-02T09:28:15;3.83;;;2.28;;
21354;SDS011;10835;50.148;19.760;2023-07-02T09:30:50;3.22;;;2.70;;
21354;SDS011;10835;50.148;19.760;2023-07-02T09:33:23;4.47;;;2.88;;
21354;SDS011;10835;50.148;19.760;2023-07-02T09:35:52;5.25;;;3.10;;
21354;SDS011;10835;50.148;19.760;2023-07-02T09:38:20;4.68;;;2.50;;
21354;SDS011;10835;50.148;19.760;2023-07-02T09:40:49;5.78;;;3.03;;
21354;SDS011;10835;50.148;19.760;2023-07-02T09:43:19;5.13;;;2.92;;
21354;SDS011;10835;50.148;19.760;2023-07-02T09:45:50;7.38;;;3.00;;
21354;SDS011;10835;50.148;19.760;2023-07-02T09:48:22;3.85;;;2.78;;
21354;SDS011;10835;50.148;19.760;2023-07-02T09:50:53;3.65;;;2.83;;
21354;SDS011;10835;50.148;19.760;2023-07-02T09:53:25;3.38;;;3.03;;
21354;SDS011;10835;50.148;19.760;2023-07-02T09:55:55;4.47;;;2.70;;
21354;SDS011;10835;50.148;19.760;2023-07-02T09:58:24;5.82;;;3.33;;
21354;SDS011;10835;50.148;19.760;2023-07-02T10:00:56;8.07;;;3.55;;
21354;SDS011;10835;50.148;19.760;2023-07-02T10:03:28;8.13;;;3.42;;
21354;SDS011;10835;50.148;19.760;2023-07-02T10:06:04;5.43;;;3.53;;
21354;SDS011;10835;50.148;19.760;2023-07-02T10:08:32;3.72;;;2.78;;
21354;SDS011;10835;50.148;19.760;2023-07-02T10:11:08;4.95;;;3.70;;
21354;SDS011;10835;50.148;19.760;2023-07-02T10:13:40;4.63;;;3.50;;
21354;SDS011;10835;50.148;19.760;2023-07-02T10:16:10;4.63;;;3.70;;
21354;SDS011;10835;50.148;19.760;2023-07-02T10:18:39;3.95;;;3.33;;
21354;SDS011;10835;50.148;19.760;2023-07-02T10:21:14;4.90;;;3.80;;
21354;SDS011;10835;50.148;19.760;2023-07-02T10:23:43;5.63;;;3.88;;
21354;SDS011;10835;50.148;19.760;2023-07-02T10:26:15;4.30;;;3.50;;
21354;SDS011;10835;50.148;19.760;2023-07-02T10:28:55;7.75;;;4.22;;
21354;SDS011;10835;50.148;19.760;2023-07-02T10:31:25;4.15;;;3.20;;
21354;SDS011;10835;50.148;19.760;2023-07-02T10:33:53;6.70;;;3.25;;
21354;SDS011;10835;50.148;19.760;2023-07-02T10:36:23;3.97;;;3.22;;
21354;SDS011;10835;50.148;19.760;2023-07-02T10:38:52;4.60;;;3.67;;
21354;SDS011;10835;50.148;19.760;2023-07-02T10:41:24;4.57;;;3.47;;
21354;SDS011;10835;50.148;19.760;2023-07-02T10:43:53;5.47;;;3.55;;
21354;SDS011;10835;50.148;19.760;2023-07-02T10:46:21;6.05;;;3.83;;
21354;SDS011;10835;50.148;19.760;2023-07-02T10:48:54;8.25;;;3.85;;
21354;SDS011;10835;50.148;19.760;2023-07-02T10:51:23;4.95;;;3.92;;
21354;SDS011;10835;50.148;19.760;2023-07-02T10:53:58;4.53;;;3.47;;
21354;SDS011;10835;50.148;19.760;2023-07-02T10:56:27;4.70;;;4.03;;
21354;SDS011;10835;50.148;19.760;2023-07-02T10:58:55;6.00;;;4.03;;
21354;SDS011;10835;50.148;19.760;2023-07-02T11:01:24;4.72;;;3.53;;
21354;SDS011;10835;50.148;19.760;2023-07-02T11:03:58;7.13;;;3.80;;
21354;SDS011;10835;50.148;19.760;2023-07-02T11:06:27;5.70;;;3.63;;
21354;SDS011;10835;50.148;19.760;2023-07-02T11:08:59;6.05;;;4.15;;
21354;SDS011;10835;50.148;19.760;2023-07-02T11:11:28;5.20;;;4.00;;
21354;SDS011;10835;50.148;19.760;2023-07-02T11:13:57;7.57;;;3.75;;
21354;SDS011;10835;50.148;19.760;2023-07-02T11:16:26;7.00;;;4.07;;
21354;SDS011;10835;50.148;19.760;2023-07-02T11:19:07;4.53;;;3.35;;
21354;SDS011;10835;50.148;19.760;2023-07-02T11:21:37;4.80;;;3.08;;
21354;SDS011;10835;50.148;19.760;2023-07-02T11:24:05;5.05;;;3.88;;
21354;SDS011;10835;50.148;19.760;2023-07-02T11:26:36;5.00;;;3.35;;
21354;SDS011;10835;50.148;19.760;2023-07-02T11:29:06;3.72;;;2.78;;
21354;SDS011;10835;50.148;19.760;2023-07-02T11:31:38;4.15;;;3.22;;
21354;SDS011;10835;50.148;19.760;2023-07-02T11:34:12;4.05;;;3.30;;
21354;SDS011;10835;50.148;19.760;2023-07-02T11:36:44;5.75;;;3.72;;
21354;SDS011;10835;50.148;19.760;2023-07-02T11:39:12;5.15;;;3.60;;
21354;SDS011;10835;50.148;19.760;2023-07-02T11:41:42;4.95;;;3.70;;
21354;SDS011;10835;50.148;19.760;2023-07-02T11:44:12;4.43;;;3.00;;
21354;SDS011;10835;50.148;19.760;2023-07-02T11:46:42;4.00;;;3.25;;
21354;SDS011;10835;50.148;19.760;2023-07-02T11:49:10;4.38;;;3.20;;
21354;SDS011;10835;50.148;19.760;2023-07-02T11:51:43;3.25;;;2.95;;
21354;SDS011;10835;50.148;19.760;2023-07-02T11:54:15;5.38;;;3.50;;
21354;SDS011;10835;50.148;19.760;2023-07-02T11:56:44;3.40;;;2.67;;
21354;SDS011;10835;50.148;19.760;2023-07-02T11:59:13;3.60;;;3.03;;
21354;SDS011;10835;50.148;19.760;2023-07-02T12:01:44;4.43;;;3.03;;
21354;SDS011;10835;50.148;19.760;2023-07-02T12:04:14;5.05;;;3.33;;
21354;SDS011;10835;50.148;19.760;2023-07-02T12:06:43;4.18;;;2.83;;
21354;SDS011;10835;50.148;19.760;2023-07-02T12:09:11;4.45;;;3.05;;
21354;SDS011;10835;50.148;19.760;2023-07-02T12:11:39;3.30;;;2.55;;
21354;SDS011;10835;50.148;19.760;2023-07-02T12:14:08;5.50;;;3.22;;
21354;SDS011;10835;50.148;19.760;2023-07-02T12:16:39;2.65;;;2.45;;
21354;SDS011;10835;50.148;19.760;2023-07-02T12:19:07;5.00;;;2.45;;
21354;SDS011;10835;50.148;19.760;2023-07-02T12:21:40;3.38;;;2.60;;
21354;SDS011;10835;50.148;19.760;2023-07-02T12:24:09;2.40;;;2.20;;
21354;SDS011;10835;50.148;19.760;2023-07-02T12:26:39;3.58;;;2.55;;
21354;SDS011;10835;50.148;19.760;2023-07-02T12:29:07;4.00;;;2.50;;
21354;SDS011;10835;50.148;19.760;2023-07-02T12:31:35;4.82;;;2.60;;
21354;SDS011;10835;50.148;19.760;2023-07-02T12:34:05;2.55;;;2.10;;
21354;SDS011;10835;50.148;19.760;2023-07-02T12:36:33;4.05;;;2.35;;
21354;SDS011;10835;50.148;19.760;2023-07-02T12:39:03;4.25;;;2.85;;
21354;SDS011;10835;50.148;19.760;2023-07-02T12:41:31;2.63;;;2.25;;
21354;SDS011;10835;50.148;19.760;2023-07-02T12:44:04;3.58;;;2.65;;
21354;SDS011;10835;50.148;19.760;2023-07-02T12:46:32;3.67;;;2.08;;
21354;SDS011;10835;50.148;19.760;2023-07-02T12:49:00;5.35;;;2.70;;
21354;SDS011;10835;50.148;19.760;2023-07-02T12:51:29;5.22;;;2.10;;
21354;SDS011;10835;50.148;19.760;2023-07-02T12:53:57;3.42;;;2.17;;
21354;SDS011;10835;50.148;19.760;2023-07-02T12:56:29;3.22;;;2.05;;
21354;SDS011;10835;50.148;19.760;2023-07-02T12:58:57;3.95;;;3.05;;
21354;SDS011;10835;50.148;19.760;2023-07-02T13:01:25;2.90;;;2.20;;
21354;SDS011;10835;50.148;19.760;2023-07-02T13:03:54;2.63;;;2.17;;
21354;SDS011;10835;50.148;19.760;2023-07-02T13:06:23;5.38;;;2.60;;
21354;SDS011;10835;50.148;19.760;2023-07-02T13:08:51;2.20;;;1.90;;
21354;SDS011;10835;50.148;19.760;2023-07-02T13:11:22;4.57;;;2.25;;
21354;SDS011;10835;50.148;19.760;2023-07-02T13:13:51;2.72;;;2.25;;
21354;SDS011;10835;50.148;19.760;2023-07-02T13:16:20;2.58;;;2.38;;
21354;SDS011;10835;50.148;19.760;2023-07-02T13:18:48;2.47;;;2.22;;
21354;SDS011;10835;50.148;19.760;2023-07-02T13:21:16;3.08;;;1.95;;
21354;SDS011;10835;50.148;19.760;2023-07-02T13:23:45;2.67;;;1.90;;
21354;SDS011;10835;50.148;19.760;2023-07-02T13:26:13;2.22;;;2.03;;
21354;SDS011;10835;50.148;19.760;2023-07-02T13:28:42;2.45;;;1.92;;
21354;SDS011;10835;50.148;19.760;2023-07-02T13:31:14;1.60;;;1.30;;
21354;SDS011;10835;50.148;19.760;2023-07-02T13:33:42;1.83;;;0.93;;
21354;SDS011;10835;50.148;19.760;2023-07-02T13:36:11;2.22;;;0.70;;
21354;SDS011;10835;50.148;19.760;2023-07-02T13:38:39;1.67;;;0.60;;
21354;SDS011;10835;50.148;19.760;2023-07-02T13:41:07;2.05;;;0.50;;
21354;SDS011;10835;50.148;19.760;2023-07-02T13:43:36;0.55;;;0.38;;
21354;SDS011;10835;50.148;19.760;2023-07-02T13:46:07;0.50;;;0.50;;
21354;SDS011;10835;50.148;19.760;2023-07-02T13:48:37;0.57;;;0.57;;
21354;SDS011;10835;50.148;19.760;2023-07-02T13:51:05;0.57;;;0.57;;
21354;SDS011;10835;50.148;19.760;2023-07-02T13:53:34;1.05;;;0.90;;
21354;SDS011;10835;50.148;19.760;2023-07-02T13:56:03;0.73;;;0.55;;
21354;SDS011;10835;50.148;19.760;2023-07-02T14:01:15;0.85;;;0.68;;
21354;SDS011;10835;50.148;19.760;2023-07-02T14:03:43;2.63;;;0.50;;
21354;SDS011;10835;50.148;19.760;2023-07-02T14:06:12;0.70;;;0.70;;
21354;SDS011;10835;50.148;19.760;2023-07-02T14:08:42;1.75;;;0.63;;
21354;SDS011;10835;50.148;19.760;2023-07-02T14:11:14;1.25;;;0.70;;
21354;SDS011;10835;50.148;19.760;2023-07-02T14:13:42;0.70;;;0.60;;
21354;SDS011;10835;50.148;19.760;2023-07-02T14:16:10;2.15;;;0.75;;
21354;SDS011;10835;50.148;19.760;2023-07-02T14:18:41;0.60;;;0.60;;
21354;SDS011;10835;50.148;19.760;2023-07-02T14:21:10;0.70;;;0.70;;
21354;SDS011;10835;50.148;19.760;2023-07-02T14:23:38;2.15;;;0.70;;
21354;SDS011;10835;50.148;19.760;2023-07-02T14:26:06;1.08;;;0.80;;
21354;SDS011;10835;50.148;19.760;2023-07-02T14:28:35;0.82;;;0.73;;
21354;SDS011;10835;50.148;19.760;2023-07-02T14:31:03;0.88;;;0.80;;
21354;SDS011;10835;50.148;19.760;2023-07-02T14:33:33;0.73;;;0.70;;
21354;SDS011;10835;50.148;19.760;2023-07-02T14:36:06;1.75;;;0.95;;
21354;SDS011;10835;50.148;19.760;2023-07-02T14:38:35;1.33;;;0.90;;
21354;SDS011;10835;50.148;19.760;2023-07-02T14:41:05;2.85;;;0.82;;
21354;SDS011;10835;50.148;19.760;2023-07-02T14:43:36;0.75;;;0.75;;